Time;durP1;ratioP1;P1;durP2;ratioP2;P2;SDS_P1;SDS_P2;PMS_P1;PMS_P2;Temp;Humidity;BMP_temperature;BMP_pressure;BME280_temperature;BME280_humidity;BME280_pressure;Samples;Min_cycle;Max_cycle;Signal;HPM_P1;HPM_P2
2024/01/08 00:01:53;;;;;;;9.37;5.90;;;0.30;99.90;;;;;;5034097;28;20533;-77
2024/01/08 00:04:22;;;;;;;7.17;5.13;;;0.40;99.90;;;;;;5051002;28;20559;-77
2024/01/08 00:06:53;;;;;;;7.93;6.03;;;0.70;99.90;;;;;;5033661;28;20218;-78
2024/01/08 00:09:20;;;;;;;9.10;6.10;;;0.60;99.90;;;;;;5033836;28;20196;-77
2024/01/08 00:11:48;;;;;;;7.60;5.60;;;0.60;99.90;;;;;;5034256;28;20196;-78
2024/01/08 00:14:15;;;;;;;6.27;5.67;;;0.80;99.90;;;;;;5033769;28;20198;-78
2024/01/08 00:16:43;;;;;;;6.03;5.20;;;0.70;99.90;;;;;;5033143;28;20220;-77
2024/01/08 00:19:12;;;;;;;8.57;5.60;;;1.00;99.90;;;;;;5034215;28;20204;-77
2024/01/08 00:21:39;;;;;;;6.17;5.37;;;0.80;99.90;;;;;;5035313;28;20192;-77
2024/01/08 00:24:07;;;;;;;5.53;4.67;;;0.80;99.90;;;;;;5033910;28;20194;-77
2024/01/08 00:26:34;;;;;;;6.50;5.17;;;0.80;99.90;;;;;;5033490;28;20222;-77
2024/01/08 00:29:02;;;;;;;6.57;5.43;;;0.80;99.90;;;;;;5031245;28;20206;-78
2024/01/08 00:31:29;;;;;;;6.33;4.53;;;0.60;99.90;;;;;;5034244;28;20196;-78
2024/01/08 00:33:57;;;;;;;6.07;5.00;;;0.30;99.90;;;;;;5033879;28;20204;-77
2024/01/08 00:36:26;;;;;;;5.43;4.40;;;0.00;99.90;;;;;;5033495;28;20217;-77
2024/01/08 00:38:54;;;;;;;5.97;4.60;;;0.20;99.90;;;;;;5028920;28;20195;-77
2024/01/08 00:41:22;;;;;;;6.50;5.07;;;0.10;99.90;;;;;;5033217;28;20221;-77
2024/01/08 00:43:51;;;;;;;7.20;4.70;;;0.00;99.90;;;;;;5033516;28;20653;-77
2024/01/08 00:46:18;;;;;;;6.07;4.80;;;0.00;99.90;;;;;;5032580;28;20219;-77
2024/01/08 00:48:46;;;;;;;6.57;5.00;;;0.00;99.90;;;;;;5033096;28;20205;-77
2024/01/08 00:51:13;;;;;;;5.87;5.13;;;0.00;99.90;;;;;;5034592;28;20198;-77
2024/01/08 00:53:42;;;;;;;8.70;5.07;;;0.10;99.90;;;;;;5033770;28;20209;-77
2024/01/08 00:56:10;;;;;;;5.27;4.53;;;0.10;99.90;;;;;;5034043;28;20219;-77
2024/01/08 00:58:41;;;;;;;5.80;4.53;;;0.00;99.90;;;;;;5033098;28;20204;-78
2024/01/08 01:01:09;;;;;;;5.33;4.57;;;0.00;99.90;;;;;;5033042;28;20209;-77
2024/01/08 01:03:37;;;;;;;5.40;4.50;;;-0.10;99.90;;;;;;5033055;28;20221;-77
2024/01/08 01:06:04;;;;;;;7.50;4.73;;;0.00;99.90;;;;;;5032776;28;20234;-77
2024/01/08 01:08:32;;;;;;;6.00;5.03;;;-0.20;99.90;;;;;;5032741;28;20195;-77
2024/01/08 01:11:19;;;;;;;6.67;5.00;;;0.10;99.90;;;;;;5032865;28;20199;-77
2024/01/08 01:13:47;;;;;;;5.93;4.87;;;0.20;99.90;;;;;;5033417;28;20209;-78
2024/01/08 01:16:14;;;;;;;6.03;4.53;;;0.20;99.90;;;;;;5031099;28;20226;-78
2024/01/08 01:18:42;;;;;;;5.63;4.87;;;0.10;99.90;;;;;;5032877;28;20203;-77
2024/01/08 01:21:14;;;;;;;6.17;4.83;;;0.00;99.90;;;;;;5034284;28;20194;-78
2024/01/08 01:23:41;;;;;;;6.60;4.70;;;-0.30;99.90;;;;;;5031188;28;20193;-75
2024/01/08 01:26:09;;;;;;;5.80;4.80;;;-0.50;99.90;;;;;;5039077;28;20238;-77
2024/01/08 01:28:40;;;;;;;5.83;4.33;;;-0.50;99.90;;;;;;5031200;28;20193;-77
2024/01/08 01:31:07;;;;;;;5.50;4.83;;;-0.80;99.90;;;;;;5032079;28;20213;-77
2024/01/08 01:33:35;;;;;;;7.17;5.13;;;-0.50;99.90;;;;;;5032650;28;20201;-77
2024/01/08 01:36:02;;;;;;;5.60;4.77;;;-0.30;99.90;;;;;;5033243;28;20218;-77
2024/01/08 01:38:29;;;;;;;6.73;4.97;;;0.00;99.90;;;;;;5022083;28;20565;-77
2024/01/08 01:40:57;;;;;;;5.63;4.60;;;-0.10;99.90;;;;;;5019462;28;20202;-77
2024/01/08 01:43:26;;;;;;;7.07;5.07;;;0.10;99.90;;;;;;5026184;28;20196;-77
2024/01/08 01:45:57;;;;;;;6.33;5.20;;;0.10;99.90;;;;;;5031395;28;20592;-77
2024/01/08 01:48:29;;;;;;;6.03;4.37;;;0.30;99.90;;;;;;5032113;28;20198;-77
2024/01/08 01:50:57;;;;;;;6.73;5.23;;;0.40;99.90;;;;;;5029664;28;20195;-77
2024/01/08 01:53:25;;;;;;;8.10;5.00;;;0.30;99.90;;;;;;5020160;28;20191;-77
2024/01/08 01:55:54;;;;;;;6.37;4.83;;;0.40;99.90;;;;;;5022581;28;20246;-77
2024/01/08 01:58:24;;;;;;;6.10;4.53;;;0.30;99.90;;;;;;5031352;28;20212;-77
2024/01/08 02:00:52;;;;;;;6.07;4.17;;;0.30;99.90;;;;;;5030327;28;20561;-78
2024/01/08 02:03:23;;;;;;;6.73;4.67;;;0.40;99.90;;;;;;5019227;28;20200;-78
2024/01/08 02:05:51;;;;;;;5.93;4.93;;;0.30;99.90;;;;;;5020378;28;20227;-77
2024/01/08 02:08:19;;;;;;;5.63;4.60;;;0.20;99.90;;;;;;5060177;23;20227;-79
2024/01/08 02:10:46;;;;;;;5.87;4.37;;;0.30;99.90;;;;;;5022808;28;20197;-79
2024/01/08 02:13:14;;;;;;;6.80;4.93;;;0.30;99.90;;;;;;5029727;28;20214;-79
2024/01/08 02:15:41;;;;;;;5.97;4.83;;;0.10;99.90;;;;;;5029263;28;20190;-78
2024/01/08 02:18:09;;;;;;;7.17;4.70;;;0.10;99.90;;;;;;5060996;28;20587;-79
2024/01/08 02:20:38;;;;;;;7.17;4.67;;;0.20;99.90;;;;;;5044732;28;20694;-79
2024/01/08 02:23:06;;;;;;;6.53;5.03;;;0.30;99.90;;;;;;5043045;28;20203;-79
2024/01/08 02:25:34;;;;;;;7.10;5.27;;;0.20;99.90;;;;;;5053253;28;20200;-78
2024/01/08 02:28:02;;;;;;;8.03;5.60;;;0.30;99.90;;;;;;5046427;28;20218;-79
2024/01/08 02:30:29;;;;;;;6.93;5.20;;;0.30;99.90;;;;;;5045696;28;20190;-79
2024/01/08 02:32:56;;;;;;;6.97;5.30;;;0.30;99.90;;;;;;5043916;28;20190;-79
2024/01/08 02:35:24;;;;;;;5.87;5.00;;;0.10;99.90;;;;;;5048104;28;20207;-77
2024/01/08 02:37:51;;;;;;;6.60;5.17;;;0.10;99.90;;;;;;5046328;28;20220;-79
2024/01/08 02:40:20;;;;;;;5.83;5.20;;;0.30;99.90;;;;;;5041319;28;20205;-79
2024/01/08 02:42:48;;;;;;;7.57;5.33;;;0.10;99.90;;;;;;5066446;28;20179;-79
2024/01/08 02:45:15;;;;;;;6.73;5.47;;;0.20;99.90;;;;;;5050432;28;20213;-79
2024/01/08 02:47:43;;;;;;;7.20;5.00;;;0.20;99.90;;;;;;5051241;28;20218;-79
2024/01/08 02:50:11;;;;;;;6.70;5.20;;;0.20;99.90;;;;;;5045621;28;20204;-78
2024/01/08 02:52:38;;;;;;;6.87;5.33;;;0.20;99.90;;;;;;5046711;28;20201;-77
2024/01/08 02:55:06;;;;;;;7.40;5.07;;;0.10;99.90;;;;;;5071784;28;20204;-79
2024/01/08 02:57:35;;;;;;;7.13;5.17;;;-0.10;99.90;;;;;;5049635;28;20214;-79
2024/01/08 03:00:04;;;;;;;6.60;5.30;;;0.10;99.90;;;;;;5045474;28;20204;-79
2024/01/08 03:02:32;;;;;;;6.83;5.37;;;0.00;99.90;;;;;;5051051;28;20180;-79
2024/01/08 03:04:59;;;;;;;8.10;5.73;;;-0.10;99.90;;;;;;5052088;28;20190;-79
2024/01/08 03:07:27;;;;;;;6.13;5.40;;;0.00;99.90;;;;;;5051595;28;20215;-76
2024/01/08 03:09:56;;;;;;;6.40;4.80;;;0.00;99.90;;;;;;5045248;28;20191;-77
2024/01/08 03:12:24;;;;;;;6.67;5.30;;;0.10;99.90;;;;;;5060515;28;20205;-79
2024/01/08 03:14:54;;;;;;;6.20;4.93;;;0.10;99.90;;;;;;5048716;28;20201;-79
2024/01/08 03:17:21;;;;;;;6.43;5.57;;;0.10;99.90;;;;;;5050802;28;20269;-78
2024/01/08 03:19:48;;;;;;;7.43;5.80;;;0.20;99.90;;;;;;5044615;28;20199;-79
2024/01/08 03:22:16;;;;;;;7.43;5.80;;;0.20;99.90;;;;;;5033183;28;20210;-79
2024/01/08 03:24:43;;;;;;;5.70;5.10;;;0.10;99.90;;;;;;5046282;28;20203;-78
2024/01/08 03:27:10;;;;;;;7.17;5.80;;;0.30;99.90;;;;;;5043306;28;20221;-79
2024/01/08 03:29:37;;;;;;;8.90;5.60;;;0.30;99.90;;;;;;5040316;28;20186;-79
2024/01/08 03:32:09;;;;;;;6.80;5.60;;;0.40;99.90;;;;;;5059376;28;20198;-79
2024/01/08 03:34:36;;;;;;;7.37;5.80;;;0.30;99.90;;;;;;5043764;28;20221;-79
2024/01/08 03:37:04;;;;;;;10.33;5.60;;;0.10;99.90;;;;;;5042580;28;20234;-79
2024/01/08 03:39:31;;;;;;;7.30;6.10;;;0.20;99.90;;;;;;5039127;28;20218;-77
2024/01/08 03:41:58;;;;;;;8.13;6.27;;;0.30;99.90;;;;;;5035929;28;20202;-79
2024/01/08 03:44:26;;;;;;;7.90;6.00;;;0.60;99.90;;;;;;5042903;28;20210;-79
2024/01/08 03:46:53;;;;;;;7.93;6.03;;;0.60;99.90;;;;;;5042251;28;20215;-79
2024/01/08 03:49:22;;;;;;;8.67;6.57;;;0.30;99.90;;;;;;5057159;28;20201;-78
2024/01/08 03:51:50;;;;;;;7.67;5.83;;;0.20;99.90;;;;;;5041848;28;20186;-78
2024/01/08 03:54:17;;;;;;;6.70;6.00;;;0.30;99.90;;;;;;5051425;28;20673;-78
2024/01/08 03:56:45;;;;;;;7.53;6.07;;;0.40;99.90;;;;;;5046569;28;20218;-79
2024/01/08 03:59:13;;;;;;;8.87;6.33;;;0.20;99.90;;;;;;5035374;28;20223;-77
2024/01/08 04:01:45;;;;;;;7.60;5.93;;;0.40;99.90;;;;;;5039733;28;20198;-77
2024/01/08 04:04:12;;;;;;;10.17;6.13;;;0.40;99.90;;;;;;5039476;28;20209;-78
2024/01/08 04:06:41;;;;;;;7.37;6.40;;;0.50;99.90;;;;;;5038951;28;20222;-77
2024/01/08 04:09:08;;;;;;;9.40;5.90;;;0.50;99.90;;;;;;5038695;28;20558;-77
2024/01/08 04:11:36;;;;;;;7.43;6.53;;;0.30;99.90;;;;;;5039616;28;20195;-78
2024/01/08 04:14:03;;;;;;;9.03;6.40;;;0.40;99.90;;;;;;5033020;28;20207;-78
2024/01/08 04:16:30;;;;;;;9.07;6.43;;;0.40;99.90;;;;;;5049825;28;20198;-77
2024/01/08 04:18:58;;;;;;;7.93;6.00;;;0.20;99.90;;;;;;5039338;28;20222;-77
2024/01/08 04:21:25;;;;;;;6.97;5.80;;;0.40;99.90;;;;;;5054851;28;20191;-77
2024/01/08 04:23:54;;;;;;;8.43;6.63;;;0.20;99.90;;;;;;5036731;28;20212;-77
2024/01/08 04:26:23;;;;;;;9.00;6.50;;;0.30;99.90;;;;;;5034724;28;20206;-78
2024/01/08 04:28:51;;;;;;;7.80;6.23;;;0.50;99.90;;;;;;5031913;28;20190;-77
2024/01/08 04:31:19;;;;;;;7.30;6.57;;;0.20;99.90;;;;;;5056137;28;20680;-77
2024/01/08 04:34:23;;;;;;;8.87;6.00;;;0.30;99.90;;;;;;5036694;28;20206;-77
2024/01/08 04:36:53;;;;;;;8.37;6.40;;;0.20;99.90;;;;;;5050885;28;20218;-77
2024/01/08 04:39:22;;;;;;;7.60;6.70;;;0.50;99.90;;;;;;5031162;28;20218;-77
2024/01/08 04:41:49;;;;;;;9.37;6.50;;;0.30;99.90;;;;;;5039113;28;20203;-78
2024/01/08 04:44:17;;;;;;;7.80;6.23;;;0.30;99.90;;;;;;5039964;28;20206;-77
2024/01/08 04:46:45;;;;;;;7.87;6.83;;;0.40;99.90;;;;;;5055200;28;20220;-77
2024/01/08 04:49:12;;;;;;;7.53;6.70;;;0.30;99.90;;;;;;5035850;28;20196;-78
2024/01/08 04:51:40;;;;;;;7.03;6.17;;;0.20;99.90;;;;;;5035429;28;20206;-78
2024/01/08 04:54:08;;;;;;;9.30;7.30;;;0.30;99.90;;;;;;5040749;28;20551;-77
2024/01/08 04:56:37;;;;;;;9.43;7.20;;;0.40;99.90;;;;;;5028666;28;20229;-77
2024/01/08 04:59:05;;;;;;;8.80;6.37;;;0.30;99.90;;;;;;5037864;28;20211;-78
2024/01/08 05:01:38;;;;;;;9.43;7.20;;;0.10;99.90;;;;;;5038909;28;20200;-77
2024/01/08 05:04:05;;;;;;;8.53;6.53;;;0.10;99.90;;;;;;5038652;28;20660;-77
2024/01/08 05:06:32;;;;;;;10.33;7.53;;;0.10;99.90;;;;;;5023484;28;20221;-77
2024/01/08 05:09:00;;;;;;;8.50;7.27;;;0.20;99.90;;;;;;5033966;28;20197;-77
2024/01/08 05:11:28;;;;;;;9.37;7.20;;;0.20;99.90;;;;;;5054801;28;20203;-78
2024/01/08 05:13:57;;;;;;;9.40;7.30;;;0.10;99.90;;;;;;5038748;28;20199;-77
2024/01/08 05:16:25;;;;;;;12.83;8.00;;;0.30;99.90;;;;;;5036420;28;20199;-78
2024/01/08 05:18:52;;;;;;;10.07;7.30;;;0.10;99.90;;;;;;5043415;28;20209;-77
2024/01/08 05:21:19;;;;;;;12.80;8.10;;;0.30;99.90;;;;;;5038308;28;20206;-77
2024/01/08 05:23:47;;;;;;;8.57;6.73;;;0.30;99.90;;;;;;5038173;28;20202;-78
2024/01/08 05:26:13;;;;;;;8.67;7.53;;;0.10;99.90;;;;;;5037410;28;20201;-77
2024/01/08 05:28:41;;;;;;;9.50;7.00;;;0.10;99.90;;;;;;5035586;28;20186;-77
2024/01/08 05:31:09;;;;;;;8.90;7.07;;;0.00;99.90;;;;;;5043175;28;20204;-79
2024/01/08 05:33:37;;;;;;;8.17;7.33;;;0.00;99.90;;;;;;5051065;28;20195;-79
2024/01/08 05:36:05;;;;;;;8.00;6.87;;;0.00;99.90;;;;;;5058017;28;20198;-79
2024/01/08 05:38:32;;;;;;;10.07;7.53;;;0.20;99.90;;;;;;5067922;28;20217;-79
2024/01/08 05:41:00;;;;;;;9.80;7.73;;;0.20;99.90;;;;;;5049855;28;20199;-78
2024/01/08 05:43:27;;;;;;;9.50;7.47;;;0.10;99.90;;;;;;5026030;28;20202;-80
2024/01/08 05:45:54;;;;;;;8.50;6.90;;;0.20;99.90;;;;;;5039301;28;20194;-79
2024/01/08 05:48:23;;;;;;;10.60;8.40;;;0.30;99.90;;;;;;5058560;28;20218;-79
2024/01/08 05:50:51;;;;;;;10.97;7.63;;;0.20;99.90;;;;;;5043665;28;20194;-79
2024/01/08 05:53:18;;;;;;;10.63;7.63;;;0.10;99.90;;;;;;5036653;28;20206;-79
2024/01/08 05:55:46;;;;;;;8.67;7.30;;;0.10;99.90;;;;;;5059709;28;20194;-76
2024/01/08 05:58:13;;;;;;;10.77;7.80;;;0.20;99.90;;;;;;5036281;28;20237;-77
2024/01/08 06:00:40;;;;;;;10.17;7.73;;;0.40;99.90;;;;;;5035881;28;20745;-79
2024/01/08 06:03:08;;;;;;;10.60;7.13;;;0.10;99.90;;;;;;5041610;28;20195;-79
2024/01/08 06:05:37;;;;;;;10.90;7.63;;;0.00;99.90;;;;;;5042824;28;20205;-80
2024/01/08 06:08:05;;;;;;;10.97;7.67;;;0.20;99.90;;;;;;5042240;28;20237;-79
2024/01/08 06:10:32;;;;;;;9.97;7.47;;;0.40;99.90;;;;;;5046060;28;20199;-79
2024/01/08 06:13:00;;;;;;;10.87;7.57;;;0.20;99.90;;;;;;5053931;28;20529;-77
2024/01/08 06:15:27;;;;;;;10.13;6.77;;;0.10;99.90;;;;;;5020706;28;20195;-77
2024/01/08 06:17:55;;;;;;;9.37;7.13;;;0.10;99.90;;;;;;5035411;28;20222;-77
2024/01/08 06:20:22;;;;;;;7.77;6.63;;;0.20;99.90;;;;;;5052804;28;20612;-77
2024/01/08 06:22:51;;;;;;;10.40;7.27;;;0.30;99.90;;;;;;5036190;28;20199;-77
2024/01/08 06:25:18;;;;;;;8.83;6.37;;;0.30;99.90;;;;;;5033997;28;20202;-77
2024/01/08 06:27:46;;;;;;;8.60;6.40;;;0.10;99.90;;;;;;5046458;28;20213;-78
2024/01/08 06:34:04;;;;;;;6.90;5.60;;;0.00;99.90;;;;;;5048779;28;20163;-77
2024/01/08 06:36:32;;;;;;;7.50;6.07;;;0.10;99.90;;;;;;5033850;28;20221;-78
2024/01/08 06:39:00;;;;;;;7.80;5.50;;;0.10;99.90;;;;;;5030793;28;20560;-77
2024/01/08 06:41:28;;;;;;;9.07;6.13;;;0.10;99.90;;;;;;5033603;28;20202;-78
2024/01/08 06:43:56;;;;;;;6.97;5.17;;;-0.10;99.90;;;;;;5028676;28;20203;-78
2024/01/08 06:46:27;;;;;;;8.60;5.80;;;0.10;99.90;;;;;;5032095;28;20202;-77
2024/01/08 06:48:55;;;;;;;6.50;5.13;;;0.20;99.90;;;;;;5034776;28;20568;-77
2024/01/08 06:51:40;;;;;;;13.67;6.17;;;2.80;99.90;;;;;;5032201;28;20213;-77
2024/01/08 06:54:09;;;;;;;8.80;6.03;;;4.20;99.90;;;;;;5035449;28;20197;-78
2024/01/08 06:56:36;;;;;;;7.50;5.73;;;1.80;99.90;;;;;;5049420;28;20221;-79
2024/01/08 06:59:14;;;;;;;;;;;;;;;;;;;;;
2024/01/08 07:02:02;;;;;;;9.20;5.83;;;0.70;99.90;;;;;;5038769;28;20213;-78
2024/01/08 07:04:30;;;;;;;8.23;6.10;;;0.70;99.90;;;;;;5046626;28;20216;-77
2024/01/08 07:06:57;;;;;;;6.77;5.77;;;0.50;99.90;;;;;;5038618;28;20231;-78
2024/01/08 07:09:26;;;;;;;9.10;6.30;;;0.50;99.90;;;;;;5034197;28;20211;-78
2024/01/08 07:11:54;;;;;;;8.67;6.37;;;0.70;99.90;;;;;;5058965;28;20185;-78
2024/01/08 07:14:21;;;;;;;8.30;6.27;;;0.20;99.90;;;;;;5035708;28;20199;-77
2024/01/08 07:16:49;;;;;;;7.50;6.30;;;0.20;99.90;;;;;;5038481;28;20215;-78
2024/01/08 07:19:16;;;;;;;8.40;6.40;;;0.20;99.90;;;;;;5055319;28;20194;-78
2024/01/08 07:21:44;;;;;;;9.03;6.50;;;0.30;99.90;;;;;;5034141;28;20205;-77
2024/01/08 07:24:19;;;;;;;9.13;6.57;;;0.40;99.90;;;;;;5037749;28;20208;-78
2024/01/08 07:26:53;;;;;;;8.90;6.13;;;0.50;99.90;;;;;;5040396;28;20227;-79
2024/01/08 07:29:21;;;;;;;7.47;5.90;;;0.40;99.90;;;;;;5040705;28;20646;-79
2024/01/08 07:31:48;;;;;;;7.83;6.20;;;0.10;99.90;;;;;;5033881;28;20201;-78
2024/01/08 07:34:16;;;;;;;7.80;6.30;;;0.20;99.90;;;;;;5036383;28;20210;-77
2024/01/08 07:36:43;;;;;;;11.27;6.57;;;0.30;99.90;;;;;;5038033;28;20225;-81
2024/01/08 07:39:11;;;;;;;8.40;6.50;;;0.20;99.90;;;;;;5053397;28;20567;-77
2024/01/08 07:41:38;;;;;;;7.83;6.30;;;0.30;99.90;;;;;;5037202;28;20216;-77
2024/01/08 07:44:07;;;;;;;8.80;6.40;;;0.20;99.90;;;;;;5037780;28;20204;-77
2024/01/08 07:46:34;;;;;;;8.40;6.17;;;0.00;99.90;;;;;;5033574;28;20717;-77
2024/01/08 07:49:02;;;;;;;8.63;7.17;;;-0.10;99.90;;;;;;5035173;28;20215;-77
2024/01/08 07:51:29;;;;;;;8.77;6.20;;;0.10;99.90;;;;;;5025453;28;20199;-77
2024/01/08 07:53:56;;;;;;;6.83;5.97;;;0.10;99.90;;;;;;5048785;28;20198;-78
2024/01/08 07:56:25;;;;;;;8.47;6.10;;;0.10;99.90;;;;;;5033363;28;20194;-78
2024/01/08 07:58:53;;;;;;;7.37;5.93;;;0.10;99.90;;;;;;5031550;28;20206;-78
2024/01/08 08:01:22;;;;;;;8.57;6.40;;;0.20;99.90;;;;;;5043298;28;20218;-77
2024/01/08 08:03:50;;;;;;;8.13;6.83;;;0.20;99.90;;;;;;5046822;28;20203;-78
2024/01/08 08:06:17;;;;;;;9.90;6.07;;;0.10;99.90;;;;;;5046884;28;20660;-78
2024/01/08 08:08:45;;;;;;;9.83;6.57;;;0.20;99.90;;;;;;5029873;28;20210;-78
2024/01/08 08:11:14;;;;;;;7.30;5.77;;;0.10;99.90;;;;;;5028028;28;20195;-78
2024/01/08 08:13:42;;;;;;;7.60;6.40;;;0.10;99.90;;;;;;5025028;28;20222;-78
2024/01/08 08:16:09;;;;;;;7.30;6.33;;;0.10;99.90;;;;;;5037579;28;20203;-78
2024/01/08 08:18:39;;;;;;;7.57;6.50;;;0.30;99.90;;;;;;5041804;28;20234;-77
2024/01/08 08:21:06;;;;;;;8.10;7.07;;;0.50;99.90;;;;;;5033287;28;20230;-78
2024/01/08 08:23:34;;;;;;;9.23;7.03;;;0.20;99.90;;;;;;5054152;28;20191;-77
2024/01/08 08:26:10;;;;;;;7.83;6.60;;;0.30;99.90;;;;;;5035319;28;20222;-77
2024/01/08 08:28:38;;;;;;;8.07;6.10;;;0.30;99.90;;;;;;5036500;28;20221;-78
2024/01/08 08:31:05;;;;;;;8.37;6.13;;;0.20;99.90;;;;;;5033255;28;20214;-78
2024/01/08 08:33:33;;;;;;;7.30;5.97;;;0.10;99.90;;;;;;5035052;28;20202;-77
2024/01/08 08:36:02;;;;;;;7.57;6.00;;;0.00;99.90;;;;;;5046195;28;20200;-76
2024/01/08 08:38:43;;;;;;;7.63;6.47;;;0.10;99.90;;;;;;5026334;28;20229;-77
2024/01/08 08:41:10;;;;;;;8.30;6.47;;;0.10;99.90;;;;;;5036219;28;20211;-77
2024/01/08 08:43:37;;;;;;;7.73;6.20;;;-0.10;99.90;;;;;;5024639;28;20207;-77
2024/01/08 08:46:05;;;;;;;7.67;6.00;;;0.10;99.90;;;;;;5047531;28;20210;-77
2024/01/08 08:48:32;;;;;;;8.60;5.60;;;0.00;99.90;;;;;;5033075;28;20297;-77
2024/01/08 08:50:59;;;;;;;7.57;5.67;;;-0.20;99.90;;;;;;5049498;28;20198;-77
2024/01/08 08:53:50;;;;;;;7.47;5.20;;;-0.10;99.90;;;;;;5035597;28;20206;-77
2024/01/08 08:56:17;;;;;;;7.10;4.73;;;0.00;99.90;;;;;;5026195;28;20197;-78
2024/01/08 08:58:45;;;;;;;6.77;4.93;;;0.00;99.90;;;;;;5036178;28;20198;-77
2024/01/08 09:01:14;;;;;;;5.53;4.43;;;0.00;99.90;;;;;;5035567;28;20214;-75
2024/01/08 09:03:43;;;;;;;4.90;4.03;;;0.00;99.90;;;;;;5030027;28;20209;-78
2024/01/08 09:06:35;;;;;;;5.70;4.43;;;-0.30;99.90;;;;;;5028879;28;20209;-77
2024/01/08 09:09:04;;;;;;;4.83;4.30;;;-0.40;99.90;;;;;;5036832;28;20574;-79
2024/01/08 09:11:37;;;;;;;7.07;4.50;;;-0.30;99.90;;;;;;5043856;28;20201;-79
2024/01/08 09:14:05;;;;;;;5.60;3.80;;;-0.20;99.90;;;;;;5042739;28;20205;-79
2024/01/08 09:16:33;;;;;;;6.33;4.13;;;-0.20;99.90;;;;;;5050476;28;20218;-81
2024/01/08 09:19:03;;;;;;;5.23;4.03;;;-0.30;99.90;;;;;;5046214;28;20201;-77
2024/01/08 09:21:56;;;;;;;5.87;4.10;;;-0.20;99.90;;;;;;5035414;28;20222;-77
2024/01/08 09:24:25;;;;;;;5.53;4.10;;;-0.30;99.60;;;;;;5051134;28;20190;-76
2024/01/08 09:27:11;;;;;;;5.70;3.73;;;-0.20;99.00;;;;;;5028787;28;20222;-77
2024/01/08 09:29:38;;;;;;;5.20;4.27;;;-0.20;98.50;;;;;;5041696;28;20198;-77
2024/01/08 09:32:06;;;;;;;7.90;4.43;;;-0.10;98.80;;;;;;5029472;28;20202;-77
2024/01/08 09:34:34;;;;;;;5.13;3.57;;;-0.10;98.30;;;;;;5034301;28;20203;-76
2024/01/08 09:37:01;;;;;;;3.97;3.23;;;0.00;98.30;;;;;;5053590;28;20218;-76
2024/01/08 09:39:30;;;;;;;5.07;3.53;;;-0.30;96.40;;;;;;5056064;28;20206;-84
2024/01/08 09:42:01;;;;;;;3.57;2.83;;;-0.20;95.50;;;;;;5043267;28;20222;-80
2024/01/08 09:44:32;;;;;;;3.93;3.13;;;-0.30;93.80;;;;;;5038848;28;20206;-80
2024/01/08 09:47:03;;;;;;;3.90;3.00;;;-0.20;92.30;;;;;;5040503;28;20601;-83
2024/01/08 09:49:32;;;;;;;3.77;3.10;;;-0.40;91.30;;;;;;5043666;28;20199;-83
2024/01/08 09:52:01;;;;;;;4.57;3.10;;;-0.30;91.60;;;;;;5055130;28;20556;-81
2024/01/08 09:54:30;;;;;;;3.33;3.03;;;-0.30;90.80;;;;;;5043538;28;20208;-85
2024/01/08 09:56:59;;;;;;;4.07;2.93;;;-0.40;91.50;;;;;;5038316;28;20217;-81
2024/01/08 09:59:27;;;;;;;3.53;2.87;;;-0.40;91.80;;;;;;5039095;28;20206;-81
2024/01/08 10:01:57;;;;;;;4.07;2.97;;;-0.20;90.50;;;;;;5057161;28;20574;-80
2024/01/08 10:04:26;;;;;;;3.90;2.93;;;-0.20;90.80;;;;;;5047212;28;20219;-81
2024/01/08 10:07:04;;;;;;;4.20;3.30;;;-0.20;89.70;;;;;;5048269;28;20225;-81
2024/01/08 10:09:33;;;;;;;4.57;3.07;;;-0.10;90.30;;;;;;5039086;28;20194;-81
2024/01/08 10:12:01;;;;;;;4.07;3.27;;;0.10;90.00;;;;;;5057506;28;20553;-81
2024/01/08 10:14:28;;;;;;;4.30;3.30;;;0.20;90.30;;;;;;5060033;28;20202;-81
2024/01/08 10:16:56;;;;;;;4.20;3.30;;;0.20;91.00;;;;;;5043719;28;20222;-81
2024/01/08 10:19:24;;;;;;;3.47;2.97;;;0.30;91.70;;;;;;5032187;28;20564;-78
2024/01/08 10:22:07;;;;;;;4.47;3.43;;;0.60;92.10;;;;;;5023306;28;20211;-78
2024/01/08 10:24:38;;;;;;;3.80;3.03;;;0.50;91.30;;;;;;5056391;28;20209;-80
2024/01/08 10:27:07;;;;;;;5.33;3.33;;;0.30;90.90;;;;;;5036882;28;20227;-76
2024/01/08 10:29:41;;;;;;;4.10;3.23;;;1.40;99.90;;;;;;5035038;28;20224;-80
2024/01/08 10:32:11;;;;;;;5.53;3.00;;;0.80;91.70;;;;;;5031961;28;20205;-80
2024/01/08 10:34:41;;;;;;;5.07;3.57;;;0.70;91.20;;;;;;5038173;28;20202;-79
2024/01/08 10:37:09;;;;;;;6.50;3.77;;;0.50;90.80;;;;;;5031067;28;20230;-79
2024/01/08 10:39:40;;;;;;;4.90;3.20;;;0.60;89.60;;;;;;5034922;28;20207;-79
2024/01/08 10:42:11;;;;;;;5.07;3.60;;;0.50;88.40;;;;;;5037922;28;20223;-79
2024/01/08 10:44:43;;;;;;;5.43;4.10;;;0.90;88.90;;;;;;5031637;28;20199;-80
2024/01/08 10:47:17;;;;;;;3.93;3.20;;;1.00;86.40;;;;;;5048014;28;20267;-78
2024/01/08 10:49:50;;;;;;;6.03;3.30;;;0.70;83.00;;;;;;5029234;28;20203;-81
2024/01/08 10:52:25;;;;;;;3.83;2.93;;;0.70;82.10;;;;;;5027458;28;20247;-80
2024/01/08 10:54:58;;;;;;;7.20;3.23;;;0.50;82.00;;;;;;5050165;28;20198;-80
2024/01/08 10:57:36;;;;;;;4.43;3.20;;;0.70;82.30;;;;;;5031620;28;20219;-80
2024/01/08 11:00:09;;;;;;;4.93;3.27;;;0.40;80.60;;;;;;5033063;28;20220;-77
2024/01/08 11:02:53;;;;;;;4.03;3.13;;;0.70;82.40;;;;;;5031688;28;20214;-76
2024/01/08 11:05:21;;;;;;;5.93;3.40;;;2.00;85.20;;;;;;5030597;28;20687;-76
2024/01/08 11:07:51;;;;;;;5.60;3.83;;;2.90;88.90;;;;;;5046417;28;20214;-81
2024/01/08 11:10:24;;;;;;;6.43;3.23;;;2.40;78.00;;;;;;5051926;28;20196;-80
2024/01/08 11:12:56;;;;;;;5.23;3.67;;;1.30;73.70;;;;;;5041136;28;20201;-80
2024/01/08 11:15:26;;;;;;;5.87;3.53;;;1.00;76.60;;;;;;5035436;28;20202;-82
2024/01/08 11:17:54;;;;;;;5.93;3.13;;;0.80;74.10;;;;;;5049184;28;20221;-81
2024/01/08 11:20:46;;;;;;;4.00;2.97;;;1.50;75.50;;;;;;5057031;28;20217;-81
2024/01/08 11:23:40;;;;;;;3.73;3.07;;;1.70;73.80;;;;;;5035560;28;20227;-81
2024/01/08 11:26:21;;;;;;;4.70;3.37;;;0.70;72.80;;;;;;5045444;28;20200;-80
2024/01/08 11:29:02;;;;;;;4.60;3.50;;;1.10;73.30;;;;;;5045729;28;20204;-81
2024/01/08 11:32:09;;;;;;;4.33;2.80;;;2.00;73.70;;;;;;5031848;28;20204;-82
2024/01/08 11:34:56;;;;;;;4.60;3.33;;;1.80;71.40;;;;;;5039109;28;20185;-82
2024/01/08 11:37:34;;;;;;;5.93;3.10;;;2.20;70.50;;;;;;5041352;28;20211;-82
2024/01/08 11:40:03;;;;;;;3.50;2.93;;;2.00;67.60;;;;;;5045691;28;20202;-82
2024/01/08 11:42:32;;;;;;;4.93;3.37;;;1.80;67.50;;;;;;5027191;28;20226;-82
2024/01/08 11:45:01;;;;;;;3.73;2.70;;;1.40;66.20;;;;;;5051145;28;20208;-82
2024/01/08 11:47:31;;;;;;;4.60;3.13;;;1.50;67.30;;;;;;5039038;28;20223;-82
2024/01/08 11:49:59;;;;;;;4.53;2.90;;;0.80;66.40;;;;;;5039540;28;20201;-82
2024/01/08 11:52:28;;;;;;;3.93;2.67;;;1.60;68.30;;;;;;5058168;28;20545;-82
2024/01/08 11:54:55;;;;;;;5.13;3.20;;;2.20;65.90;;;;;;5047420;28;20196;-82
2024/01/08 11:57:23;;;;;;;4.57;2.97;;;2.00;63.00;;;;;;5052795;28;20220;-82
2024/01/08 11:59:52;;;;;;;3.77;3.37;;;2.30;63.20;;;;;;5050845;28;20677;-82
2024/01/08 12:02:23;;;;;;;5.70;3.47;;;2.60;61.70;;;;;;5059223;28;20246;-82
2024/01/08 12:04:54;;;;;;;4.03;3.33;;;2.10;62.20;;;;;;5038792;28;20197;-81
2024/01/08 12:07:22;;;;;;;4.70;2.93;;;2.00;63.50;;;;;;5045934;28;20705;-83
2024/01/08 12:09:50;;;;;;;3.90;3.20;;;2.40;63.60;;;;;;5045450;28;20210;-82
2024/01/08 12:12:19;;;;;;;4.70;2.83;;;3.30;62.70;;;;;;5050924;28;20193;-81
2024/01/08 12:14:47;;;;;;;5.50;3.10;;;1.60;59.30;;;;;;5069791;28;20209;-82
2024/01/08 12:17:18;;;;;;;5.30;3.37;;;3.50;64.20;;;;;;5056948;28;20225;-81
2024/01/08 12:19:48;;;;;;;3.60;3.00;;;2.60;57.60;;;;;;5063183;28;20186;-81
2024/01/08 12:22:16;;;;;;;4.17;3.00;;;4.00;62.80;;;;;;5066953;28;20198;-82
2024/01/08 12:24:47;;;;;;;3.67;3.03;;;2.70;57.40;;;;;;5056688;28;20215;-80
2024/01/08 12:27:17;;;;;;;4.40;3.27;;;5.10;62.00;;;;;;5058207;28;20221;-82
2024/01/08 12:29:45;;;;;;;3.53;2.90;;;5.50;54.60;;;;;;5062302;28;20202;-82
2024/01/08 12:32:16;;;;;;;6.27;3.57;;;4.70;53.50;;;;;;5043675;28;20209;-83
2024/01/08 12:34:44;;;;;;;4.87;2.87;;;5.10;52.40;;;;;;5039729;28;20215;-85
2024/01/08 12:37:13;;;;;;;3.40;2.97;;;4.20;51.70;;;;;;5038912;28;20216;-83
2024/01/08 12:39:41;;;;;;;4.60;3.27;;;4.10;54.10;;;;;;5042711;28;20200;-82
2024/01/08 12:42:11;;;;;;;2.70;2.50;;;3.10;53.20;;;;;;5043402;28;20226;-83
2024/01/08 12:44:39;;;;;;;3.53;3.13;;;4.50;50.60;;;;;;5041902;28;20198;-83
2024/01/08 12:47:07;;;;;;;4.57;2.97;;;4.70;49.20;;;;;;5035301;28;20719;-82
2024/01/08 12:49:36;;;;;;;4.73;2.97;;;4.40;47.10;;;;;;5040113;28;20206;-82
2024/01/08 12:52:05;;;;;;;3.90;3.00;;;4.50;49.60;;;;;;5033272;28;20575;-82
2024/01/08 12:54:35;;;;;;;4.30;2.90;;;3.30;46.10;;;;;;5057727;28;20638;-82
2024/01/08 12:57:04;;;;;;;3.50;2.83;;;3.30;49.00;;;;;;5040679;28;20228;-82
2024/01/08 12:59:34;;;;;;;6.63;3.00;;;1.70;49.30;;;;;;5038161;28;20201;-82
2024/01/08 13:02:02;;;;;;;4.10;3.20;;;2.00;52.70;;;;;;5055615;28;20567;-82
2024/01/08 13:04:30;;;;;;;3.37;2.60;;;3.40;50.40;;;;;;5031464;28;20213;-82
2024/01/08 13:06:59;;;;;;;4.67;2.83;;;3.50;51.90;;;;;;5036456;28;20225;-82
2024/01/08 13:09:26;;;;;;;3.40;2.97;;;3.40;48.30;;;;;;5040206;28;20228;-82
2024/01/08 13:11:54;;;;;;;4.30;2.67;;;4.50;50.60;;;;;;5028703;28;20196;-82